Time;durP1;ratioP1;P1;durP2;ratioP2;P2;SDS_P1;SDS_P2;PMS_P1;PMS_P2;Temp;Humidity;BMP_temperature;BMP_pressure;BME280_temperature;BME280_humidity;BME280_pressure;Samples;Min_cycle;Max_cycle;Signal;HPM_P1;HPM_P2
2022/05/11 00:00:17;;;;;;;15.98;9.98;;;14.70;70.10;;;;;;4955877;29;20107;-16
2022/05/11 00:02:43;;;;;;;21.40;13.55;;;14.60;70.10;;;;;;4955955;28;20023;-16
2022/05/11 00:05:12;;;;;;;16.42;10.30;;;14.60;70.20;;;;;;4956060;29;20030;-16
2022/05/11 00:07:37;;;;;;;17.85;11.25;;;14.60;70.60;;;;;;4955784;28;20538;-15
2022/05/11 00:10:11;;;;;;;20.60;11.65;;;14.60;70.70;;;;;;4955999;28;20098;-17
2022/05/11 00:12:39;;;;;;;15.23;10.00;;;14.60;70.90;;;;;;4955561;28;20031;-16
2022/05/11 00:15:06;;;;;;;13.70;9.70;;;14.50;71.50;;;;;;4955899;29;20031;-15
2022/05/11 00:17:32;;;;;;;17.58;10.68;;;14.50;71.00;;;;;;4955547;28;20532;-15
2022/05/11 00:19:58;;;;;;;15.95;11.15;;;14.40;71.10;;;;;;4955795;29;20099;-14
2022/05/11 00:22:24;;;;;;;14.55;8.98;;;14.40;71.70;;;;;;4955393;28;20056;-16
2022/05/11 00:24:50;;;;;;;14.60;9.55;;;14.40;71.60;;;;;;4955521;28;20479;-16
2022/05/11 00:27:16;;;;;;;16.63;10.32;;;14.40;71.30;;;;;;4955522;28;20038;-16
2022/05/11 00:29:42;;;;;;;18.20;10.30;;;14.40;71.60;;;;;;4954204;29;20126;-15
2022/05/11 00:32:08;;;;;;;16.13;10.80;;;14.40;71.50;;;;;;4955715;28;20062;-17
2022/05/11 00:34:34;;;;;;;17.67;11.10;;;14.30;72.30;;;;;;4953928;29;20070;-16
2022/05/11 00:37:00;;;;;;;15.88;10.13;;;14.30;72.70;;;;;;4954967;28;20074;-15
2022/05/11 00:39:26;;;;;;;13.32;8.80;;;14.20;72.30;;;;;;4955577;28;20027;-15
2022/05/11 00:41:53;;;;;;;17.52;11.38;;;14.20;72.20;;;;;;4955565;29;20027;-16
2022/05/11 00:44:20;;;;;;;18.77;11.35;;;14.20;72.70;;;;;;4955204;28;20498;-15
2022/05/11 00:46:58;;;;;;;17.67;11.82;;;14.20;72.90;;;;;;4954010;29;20404;-14
2022/05/11 00:50:02;;;;;;;19.00;11.77;;;14.20;73.30;;;;;;4955523;29;20027;-14
2022/05/11 00:52:34;;;;;;;17.70;11.70;;;14.10;73.60;;;;;;4951662;29;20094;-15
2022/05/11 00:55:11;;;;;;;13.32;9.82;;;14.00;73.80;;;;;;4953896;29;20049;-15
2022/05/11 00:57:50;;;;;;;15.48;10.60;;;14.00;73.40;;;;;;4955304;29;20031;-15
2022/05/11 01:00:18;;;;;;;18.33;10.70;;;14.00;73.50;;;;;;4953752;29;20054;-15
2022/05/11 01:02:52;;;;;;;15.98;10.63;;;13.90;73.10;;;;;;4955333;28;20032;-14
2022/05/11 01:05:18;;;;;;;22.75;13.52;;;13.90;73.10;;;;;;4954421;29;20019;-15
2022/05/11 01:07:44;;;;;;;22.20;14.20;;;13.90;73.80;;;;;;4955177;28;20031;-16
2022/05/11 01:10:10;;;;;;;19.27;12.85;;;13.90;73.30;;;;;;4954887;28;20475;-16
2022/05/11 01:12:43;;;;;;;19.55;12.90;;;13.90;73.60;;;;;;4954976;28;20031;-15
2022/05/11 01:15:12;;;;;;;17.98;12.45;;;13.80;73.70;;;;;;4955155;29;20031;-16
2022/05/11 01:17:39;;;;;;;17.77;12.52;;;13.80;74.20;;;;;;4954850;29;20027;-16
2022/05/11 01:20:08;;;;;;;16.88;11.52;;;13.70;74.80;;;;;;4954828;29;20052;-15
2022/05/11 01:22:46;;;;;;;19.35;12.45;;;13.70;74.20;;;;;;4954863;28;20023;-14
2022/05/11 01:25:15;;;;;;;16.33;11.00;;;13.70;75.40;;;;;;4955132;28;20051;-15
2022/05/11 01:27:46;;;;;;;17.17;10.70;;;13.50;75.00;;;;;;4954712;29;20557;-14
2022/05/11 01:30:23;;;;;;;19.55;11.40;;;13.50;75.60;;;;;;4954949;29;20032;-15
2022/05/11 01:32:55;;;;;;;19.88;13.18;;;13.40;75.80;;;;;;4955161;29;20034;-14
2022/05/11 01:35:45;;;;;;;12.95;9.85;;;13.20;75.80;;;;;;4954750;28;20070;-14
2022/05/11 01:38:26;;;;;;;15.57;11.80;;;13.10;75.30;;;;;;4954547;29;20412;-15
2022/05/11 01:40:52;;;;;;;19.05;13.50;;;13.00;75.50;;;;;;4954642;28;20055;-15
2022/05/11 01:43:24;;;;;;;22.88;14.18;;;13.00;75.50;;;;;;4954998;29;20062;-16
2022/05/11 01:45:51;;;;;;;21.80;12.98;;;13.00;76.10;;;;;;4954826;28;20028;-15
2022/05/11 01:48:17;;;;;;;24.95;16.05;;;13.00;75.60;;;;;;4955789;28;20034;-15
2022/05/11 01:50:44;;;;;;;31.52;19.35;;;13.10;75.90;;;;;;4958842;28;20058;-16
2022/05/11 01:53:11;;;;;;;26.40;16.67;;;13.10;76.00;;;;;;4958411;29;20023;-17
2022/05/11 01:55:37;;;;;;;28.13;17.73;;;13.10;76.40;;;;;;4958450;28;20118;-15
2022/05/11 01:58:06;;;;;;;28.13;16.00;;;13.10;76.20;;;;;;4958215;29;20027;-16
2022/05/11 02:00:34;;;;;;;36.05;21.73;;;13.10;76.30;;;;;;4958167;28;20090;-14
2022/05/11 02:03:00;;;;;;;31.50;19.52;;;13.20;76.60;;;;;;4958367;28;20019;-16
2022/05/11 02:08:11;;;;;;;23.42;15.93;;;13.10;76.80;;;;;;4958177;29;20033;-14
2022/05/11 02:10:37;;;;;;;28.38;16.27;;;13.10;76.80;;;;;;4957706;28;20110;-14
2022/05/11 02:13:03;;;;;;;25.58;16.65;;;13.10;76.80;;;;;;4958153;28;20028;-15
2022/05/11 02:15:29;;;;;;;30.60;20.30;;;13.10;76.70;;;;;;4958201;28;20031;-15
2022/05/11 02:17:55;;;;;;;19.33;13.70;;;13.00;76.80;;;;;;4957956;29;20050;-16
2022/05/11 02:20:22;;;;;;;27.48;19.05;;;13.10;76.90;;;;;;4957733;28;20106;-15
2022/05/11 02:22:49;;;;;;;25.65;16.77;;;13.00;77.00;;;;;;4958030;28;20031;-14
2022/05/11 02:25:17;;;;;;;28.90;18.83;;;13.00;77.50;;;;;;4957855;28;20023;-15
2022/05/11 02:27:45;;;;;;;29.98;18.73;;;13.00;77.50;;;;;;4957924;29;20035;-16
2022/05/11 02:30:15;;;;;;;27.48;17.45;;;13.00;77.20;;;;;;4957667;29;20031;-16
2022/05/11 02:32:41;;;;;;;22.75;15.48;;;12.90;77.10;;;;;;4957761;29;20019;-14
2022/05/11 02:35:14;;;;;;;22.27;16.08;;;12.90;77.30;;;;;;4957504;29;20381;-15
2022/05/11 02:37:50;;;;;;;21.27;15.00;;;12.90;77.50;;;;;;4957599;28;20051;-14
2022/05/11 02:40:19;;;;;;;25.15;15.07;;;12.90;77.40;;;;;;4957427;28;20054;-15
2022/05/11 02:42:45;;;;;;;20.20;14.05;;;12.90;77.20;;;;;;4957385;28;20503;-16
2022/05/11 02:45:13;;;;;;;33.22;18.83;;;12.90;77.10;;;;;;4957321;28;20027;-16
2022/05/11 02:47:41;;;;;;;33.72;20.10;;;12.90;77.10;;;;;;4957352;28;20031;-15
2022/05/11 02:50:09;;;;;;;31.55;20.02;;;12.80;77.20;;;;;;4957406;29;20032;-15
2022/05/11 02:52:35;;;;;;;24.63;16.65;;;12.80;77.40;;;;;;4957307;28;20035;-15
2022/05/11 02:55:02;;;;;;;23.30;15.25;;;12.80;77.50;;;;;;4957080;28;20035;-14
2022/05/11 02:57:28;;;;;;;21.83;15.13;;;12.80;77.70;;;;;;4957151;29;20432;-14
2022/05/11 02:59:55;;;;;;;22.33;15.93;;;12.80;77.50;;;;;;4957046;28;20023;-16
2022/05/11 03:02:22;;;;;;;21.50;14.35;;;12.80;77.50;;;;;;4956839;29;20483;-15
2022/05/11 03:04:49;;;;;;;23.73;15.65;;;12.80;77.60;;;;;;4956980;28;20122;-15
2022/05/11 03:07:16;;;;;;;33.38;18.33;;;12.80;77.90;;;;;;4956942;28;20031;-15
2022/05/11 03:09:41;;;;;;;26.23;17.23;;;12.80;77.80;;;;;;4957101;29;20082;-15
2022/05/11 03:12:09;;;;;;;21.83;14.93;;;12.80;77.70;;;;;;4955576;29;20035;-15
2022/05/11 03:14:35;;;;;;;26.10;15.88;;;12.80;77.80;;;;;;4956875;28;20023;-16
2022/05/11 03:17:02;;;;;;;20.33;13.95;;;12.70;78.00;;;;;;4956764;29;20075;-16
2022/05/11 03:19:29;;;;;;;19.52;12.57;;;12.70;77.80;;;;;;4955457;29;20038;-16
2022/05/11 03:21:56;;;;;;;24.80;15.30;;;12.60;77.70;;;;;;4956642;28;20039;-15
2022/05/11 03:24:22;;;;;;;25.38;15.98;;;12.60;77.70;;;;;;4956426;29;20030;-15
2022/05/11 03:26:48;;;;;;;22.95;14.05;;;12.60;77.90;;;;;;4956579;28;20039;-15
2022/05/11 03:29:14;;;;;;;25.95;15.20;;;12.60;77.90;;;;;;4957155;29;20485;-15
2022/05/11 03:31:40;;;;;;;34.53;19.48;;;12.50;77.80;;;;;;4956681;29;20075;-16
2022/05/11 03:36:52;;;;;;;26.73;15.70;;;12.50;78.00;;;;;;4956638;29;20090;-16
2022/05/11 03:39:18;;;;;;;28.17;16.75;;;12.60;78.10;;;;;;4956624;28;20027;-17
2022/05/11 03:41:45;;;;;;;26.02;15.95;;;12.50;78.10;;;;;;4956631;28;20032;-15
2022/05/11 03:44:12;;;;;;;37.97;22.30;;;12.50;78.10;;;;;;4956328;29;20035;-16
2022/05/11 03:46:38;;;;;;;35.55;21.38;;;12.40;78.20;;;;;;4956316;28;20077;-15
2022/05/11 03:49:05;;;;;;;33.65;20.38;;;12.50;78.70;;;;;;4956562;28;20019;-15
2022/05/11 03:51:31;;;;;;;34.38;21.92;;;12.50;78.60;;;;;;4956438;28;20101;-15
2022/05/11 03:53:58;;;;;;;31.90;18.23;;;12.50;78.60;;;;;;4956194;28;20602;-15
2022/05/11 03:56:23;;;;;;;26.23;17.40;;;12.50;78.80;;;;;;4956002;29;20054;-15
2022/05/11 03:58:49;;;;;;;37.85;23.88;;;12.60;78.80;;;;;;4956251;29;20499;-16
2022/05/11 04:01:16;;;;;;;28.63;18.70;;;12.60;79.10;;;;;;4955940;28;20110;-14
2022/05/11 04:03:43;;;;;;;30.35;18.85;;;12.60;79.10;;;;;;4955885;29;20023;-17
2022/05/11 04:06:09;;;;;;;28.05;17.98;;;12.60;79.00;;;;;;4955848;28;20031;-16
2022/05/11 04:08:35;;;;;;;24.77;17.45;;;12.70;78.90;;;;;;4954509;29;20031;-15
2022/05/11 04:11:02;;;;;;;22.83;15.45;;;12.70;78.90;;;;;;4955487;28;20023;-16
2022/05/11 04:13:28;;;;;;;22.05;11.95;;;12.70;78.90;;;;;;4955667;28;20031;-16
2022/05/11 04:15:54;;;;;;;19.30;14.10;;;12.80;78.50;;;;;;4956015;28;20027;-17
2022/05/11 04:18:22;;;;;;;28.10;17.33;;;12.80;78.50;;;;;;4955661;28;20039;-17
2022/05/11 04:20:48;;;;;;;26.65;17.05;;;12.80;79.00;;;;;;4955808;29;20059;-16
2022/05/11 04:23:13;;;;;;;22.08;14.93;;;12.90;79.00;;;;;;4955521;29;20055;-15
2022/05/11 04:25:40;;;;;;;23.90;14.43;;;12.90;79.20;;;;;;4954305;29;20027;-16
2022/05/11 04:28:11;;;;;;;28.13;18.63;;;12.90;78.80;;;;;;4955777;28;20118;-16
2022/05/11 04:30:39;;;;;;;24.23;15.32;;;12.90;79.10;;;;;;4955243;28;20436;-15
2022/05/11 04:33:06;;;;;;;31.20;18.63;;;13.00;78.80;;;;;;4955562;29;20031;-17
2022/05/11 04:35:34;;;;;;;25.02;15.52;;;13.10;79.20;;;;;;4955717;29;20098;-16
2022/05/11 04:38:06;;;;;;;20.63;13.57;;;13.20;79.00;;;;;;4955158;28;20122;-16
2022/05/11 04:40:34;;;;;;;24.48;14.70;;;13.20;78.90;;;;;;4955325;28;20118;-15
2022/05/11 04:43:10;;;;;;;21.70;14.02;;;13.40;79.20;;;;;;4954088;29;20026;-15
2022/05/11 04:45:38;;;;;;;23.90;15.68;;;13.40;78.40;;;;;;4955623;28;20490;-16
2022/05/11 04:48:05;;;;;;;23.92;14.65;;;13.50;78.80;;;;;;4955194;29;20031;-15
2022/05/11 04:50:31;;;;;;;25.50;16.65;;;13.60;78.30;;;;;;4954991;28;20027;-15
2022/05/11 04:52:56;;;;;;;29.88;20.02;;;13.80;78.20;;;;;;4955071;28;20064;-17
2022/05/11 04:55:23;;;;;;;23.58;15.63;;;13.90;78.70;;;;;;4955039;29;20027;-17
2022/05/11 04:57:49;;;;;;;21.60;14.88;;;13.90;78.50;;;;;;4955353;29;20118;-16
2022/05/11 05:00:15;;;;;;;27.45;17.38;;;14.10;78.10;;;;;;4955181;28;20065;-16
2022/05/11 05:02:42;;;;;;;31.23;18.67;;;14.20;78.00;;;;;;4955487;28;20051;-15
2022/05/11 05:05:10;;;;;;;28.65;17.52;;;14.30;78.00;;;;;;4955090;28;20058;-17
2022/05/11 05:07:39;;;;;;;35.35;20.67;;;14.40;77.60;;;;;;4955316;28;20032;-16
2022/05/11 05:10:08;;;;;;;25.38;17.33;;;14.50;77.20;;;;;;4955127;29;20019;-16
2022/05/11 05:12:35;;;;;;;29.15;19.58;;;14.70;77.10;;;;;;4954928;28;20131;-15
2022/05/11 05:15:02;;;;;;;32.05;19.80;;;14.80;76.90;;;;;;4954973;28;20035;-16
2022/05/11 05:17:28;;;;;;;30.42;18.77;;;14.90;76.80;;;;;;4955220;29;20031;-15
2022/05/11 05:19:54;;;;;;;35.45;23.65;;;15.10;76.80;;;;;;4955239;28;20541;-15
2022/05/11 05:22:21;;;;;;;29.30;19.40;;;15.20;76.70;;;;;;4954925;28;20058;-16
2022/05/11 05:24:47;;;;;;;22.40;15.55;;;15.30;76.70;;;;;;4958620;28;20480;-17
2022/05/11 05:27:15;;;;;;;29.65;19.80;;;15.40;76.60;;;;;;4958850;28;20038;-15
2022/05/11 05:32:26;;;;;;;36.28;22.23;;;15.70;76.50;;;;;;4958735;29;20042;-16
2022/05/11 05:34:52;;;;;;;30.27;20.10;;;15.90;77.90;;;;;;4958690;29;20047;-16
2022/05/11 05:37:19;;;;;;;27.17;18.90;;;16.10;78.70;;;;;;4958774;28;20137;-16
2022/05/11 05:39:46;;;;;;;30.10;20.73;;;16.20;78.10;;;;;;4958479;28;20035;-14
2022/05/11 05:42:24;;;;;;;36.13;22.48;;;16.40;77.30;;;;;;4958708;28;20033;-16
2022/05/11 05:44:50;;;;;;;27.15;18.80;;;16.50;76.20;;;;;;4958986;28;20030;-15
2022/05/11 05:47:16;;;;;;;34.75;22.33;;;16.60;75.60;;;;;;4958421;29;20023;-16
2022/05/11 05:49:44;;;;;;;25.55;17.58;;;16.70;76.10;;;;;;4958321;29;20396;-16
2022/05/11 05:52:22;;;;;;;23.98;16.52;;;16.80;75.60;;;;;;4958222;28;20106;-15
2022/05/11 05:54:51;;;;;;;27.35;17.50;;;16.90;75.70;;;;;;4958131;29;20500;-14
2022/05/11 05:57:18;;;;;;;35.58;21.65;;;17.10;75.80;;;;;;4958522;29;20027;-15
2022/05/11 05:59:45;;;;;;;27.58;18.60;;;17.40;75.30;;;;;;4958163;28;20024;-16
2022/05/11 06:02:16;;;;;;;23.63;16.00;;;17.50;75.00;;;;;;4958350;29;20460;-16
2022/05/11 06:04:43;;;;;;;27.23;18.92;;;17.70;74.20;;;;;;4958466;28;20027;-14
2022/05/11 06:07:11;;;;;;;28.55;19.27;;;17.90;74.50;;;;;;4958331;29;20110;-16
2022/05/11 06:09:41;;;;;;;27.75;17.50;;;18.00;74.30;;;;;;4957888;28;20432;-16
2022/05/11 06:12:09;;;;;;;30.17;17.23;;;18.20;73.50;;;;;;4958197;28;20034;-16
2022/05/11 06:14:36;;;;;;;27.83;17.02;;;18.40;72.90;;;;;;4957983;28;20035;-16
2022/05/11 06:17:03;;;;;;;24.00;17.00;;;18.60;72.70;;;;;;4958205;28;20062;-15
2022/05/11 06:19:30;;;;;;;34.60;20.63;;;18.80;72.80;;;;;;4957803;28;20463;-15
2022/05/11 06:21:56;;;;;;;30.50;19.13;;;18.90;72.20;;;;;;4957728;28;20034;-16
2022/05/11 06:24:22;;;;;;;26.83;17.02;;;19.10;71.60;;;;;;4957563;28;20027;-15
2022/05/11 06:26:48;;;;;;;29.88;19.33;;;19.20;71.00;;;;;;4957494;29;20027;-15
2022/05/11 06:29:14;;;;;;;23.88;17.88;;;19.40;70.40;;;;;;4957606;29;20042;-15
2022/05/11 06:31:40;;;;;;;26.80;17.52;;;19.50;70.20;;;;;;4956462;29;20114;-15
2022/05/11 06:34:07;;;;;;;27.67;19.85;;;19.60;70.20;;;;;;4957340;28;20114;-16
2022/05/11 06:36:33;;;;;;;28.25;18.38;;;19.70;69.20;;;;;;4957183;29;20032;-16
2022/05/11 06:38:59;;;;;;;27.25;18.45;;;19.90;69.20;;;;;;4957492;28;20031;-15
2022/05/11 06:41:28;;;;;;;26.10;18.58;;;19.90;69.00;;;;;;4957367;28;20067;-16
2022/05/11 06:43:54;;;;;;;21.35;14.55;;;20.10;68.70;;;;;;4957527;28;20403;-14
2022/05/11 06:46:22;;;;;;;25.52;17.17;;;20.30;68.20;;;;;;4957158;28;20038;-14
2022/05/11 06:48:48;;;;;;;18.73;13.25;;;20.50;66.60;;;;;;4957234;29;20611;-15
2022/05/11 06:51:16;;;;;;;21.10;13.07;;;20.60;66.00;;;;;;4957182;29;20110;-15
2022/05/11 06:59:20;;;;;;;24.05;15.07;;;21.30;64.50;;;;;;4957238;29;20105;-14
2022/05/11 07:01:47;;;;;;;25.15;14.95;;;21.70;63.80;;;;;;4957102;28;20027;-14
2022/05/11 07:04:13;;;;;;;23.15;14.43;;;22.00;62.20;;;;;;4957290;29;20027;-14
2022/05/11 07:06:39;;;;;;;22.20;15.23;;;22.20;61.80;;;;;;4957656;29;20388;-15
2022/05/11 07:09:05;;;;;;;15.52;11.63;;;22.40;61.00;;;;;;4957224;28;20062;-15
2022/05/11 07:14:16;;;;;;;25.65;15.45;;;23.20;60.10;;;;;;4956676;29;20107;-14
2022/05/11 07:16:43;;;;;;;20.40;13.57;;;23.50;58.40;;;;;;4957052;29;20118;-14
2022/05/11 07:19:09;;;;;;;22.95;14.93;;;23.70;58.00;;;;;;4955581;29;20038;-14
2022/05/11 07:21:35;;;;;;;17.40;12.35;;;23.90;57.70;;;;;;4957039;28;20073;-14
2022/05/11 07:24:02;;;;;;;16.67;11.07;;;24.20;57.00;;;;;;4956676;28;20059;-14
2022/05/11 07:26:28;;;;;;;22.35;16.85;;;24.30;57.10;;;;;;4956431;29;20020;-15
2022/05/11 07:28:53;;;;;;;18.42;13.43;;;24.60;55.90;;;;;;5042493;23;20105;-17
2022/05/11 07:31:19;;;;;;;25.27;14.18;;;24.70;55.90;;;;;;4976183;28;20026;-17
2022/05/11 07:33:45;;;;;;;15.77;11.90;;;24.70;55.50;;;;;;4975741;28;20118;-17
2022/05/11 07:36:12;;;;;;;19.30;12.20;;;24.80;55.50;;;;;;4975969;28;20042;-17
2022/05/11 07:38:40;;;;;;;20.10;14.13;;;24.90;55.00;;;;;;4975499;28;20031;-16
2022/05/11 07:41:07;;;;;;;23.33;14.82;;;25.00;54.80;;;;;;4976254;28;20027;-16
2022/05/11 07:43:33;;;;;;;25.23;16.70;;;25.40;54.10;;;;;;4974358;28;20027;-16
2022/05/11 07:45:59;;;;;;;16.30;12.50;;;25.70;53.70;;;;;;4974921;28;20106;-17
2022/05/11 07:48:26;;;;;;;20.38;14.50;;;25.80;53.20;;;;;;4975701;28;20155;-17
2022/05/11 07:50:52;;;;;;;17.60;11.88;;;25.80;52.80;;;;;;4976044;28;20058;-18
2022/05/11 07:53:18;;;;;;;19.90;12.18;;;25.90;52.80;;;;;;4975369;28;20038;-17
2022/05/11 07:55:44;;;;;;;18.02;13.65;;;26.10;52.80;;;;;;4975414;28;20035;-17
2022/05/11 08:00:59;;;;;;;15.82;10.95;;;26.70;51.00;;;;;;4975649;28;20038;-19
2022/05/11 08:03:25;;;;;;;17.65;12.85;;;27.10;49.20;;;;;;4975358;28;20474;-15
2022/05/11 08:05:52;;;;;;;19.83;14.13;;;27.40;48.00;;;;;;4975243;28;20029;-18
2022/05/11 08:08:18;;;;;;;19.92;12.73;;;27.70;48.20;;;;;;4974939;28;20109;-17
2022/05/11 08:10:46;;;;;;;17.98;12.18;;;27.90;48.10;;;;;;4975457;28;20150;-17
2022/05/11 08:13:12;;;;;;;21.23;11.88;;;28.10;47.80;;;;;;4975273;28;20019;-16
2022/05/11 08:15:43;;;;;;;21.13;14.98;;;28.30;47.40;;;;;;4975349;28;20027;-16
2022/05/11 08:18:10;;;;;;;15.85;12.32;;;28.50;47.20;;;;;;4975388;28;20031;-17
2022/05/11 08:20:42;;;;;;;17.60;11.93;;;28.70;47.20;;;;;;4974719;28;20368;-16
2022/05/11 08:23:09;;;;;;;17.13;11.48;;;28.90;46.50;;;;;;4975275;28;20031;-17
2022/05/11 08:25:38;;;;;;;14.23;10.40;;;29.20;46.30;;;;;;4974877;28;20074;-17
2022/05/11 08:28:14;;;;;;;18.67;14.35;;;29.40;45.50;;;;;;4974710;28;20057;-18
2022/05/11 08:33:27;;;;;;;19.30;13.25;;;29.60;45.30;;;;;;4975102;28;20050;-15
2022/05/11 08:35:59;;;;;;;20.10;12.50;;;29.60;45.50;;;;;;4975025;28;20030;-16
2022/05/11 08:38:39;;;;;;;15.67;12.07;;;29.50;45.60;;;;;;4974824;28;20034;-17
2022/05/11 08:41:38;;;;;;;17.88;12.73;;;29.60;45.70;;;;;;4975026;28;20081;-16
2022/05/11 08:44:10;;;;;;;15.93;12.32;;;29.70;45.20;;;;;;4974875;28;20155;-18
2022/05/11 08:46:58;;;;;;;16.25;12.23;;;29.90;45.50;;;;;;4974774;28;20026;-17
2022/05/11 08:49:52;;;;;;;15.57;11.60;;;30.00;45.10;;;;;;4974948;28;20023;-16
2022/05/11 08:52:43;;;;;;;18.27;13.18;;;30.30;44.70;;;;;;4974485;28;20031;-16
2022/05/11 08:55:17;;;;;;;13.35;10.80;;;30.60;43.90;;;;;;4974535;28;20034;-17
2022/05/11 08:57:46;;;;;;;15.23;10.60;;;30.70;43.90;;;;;;4974185;28;20110;-17
2022/05/11 09:00:16;;;;;;;16.17;12.18;;;30.80;44.10;;;;;;4974473;28;20486;-16
2022/05/11 09:02:57;;;;;;;14.60;11.57;;;31.00;43.80;;;;;;4974450;28;20155;-17
2022/05/11 09:05:30;;;;;;;15.25;11.65;;;31.00;43.20;;;;;;4974764;28;20030;-16
2022/05/11 09:07:57;;;;;;;14.70;9.82;;;31.20;41.70;;;;;;4974680;28;20035;-16
2022/05/11 09:10:28;;;;;;;16.25;8.93;;;31.30;43.00;;;;;;4974294;28;20165;-16
2022/05/11 09:12:57;;;;;;;15.65;11.88;;;31.40;42.50;;;;;;4974096;28;20110;-16
2022/05/11 09:15:49;;;;;;;16.27;9.43;;;31.70;41.60;;;;;;4974338;28;20031;-19
2022/05/11 09:18:16;;;;;;;15.50;10.38;;;31.90;38.90;;;;;;4974526;28;20050;-17
2022/05/11 09:20:52;;;;;;;14.75;10.65;;;31.90;41.20;;;;;;4974404;28;20043;-16
2022/05/11 09:23:39;;;;;;;13.95;8.88;;;31.90;40.90;;;;;;4974269;28;20525;-17
2022/05/11 09:26:09;;;;;;;17.23;10.57;;;31.90;41.50;;;;;;4974234;28;20027;-18
2022/05/11 09:28:38;;;;;;;15.82;11.05;;;32.00;40.00;;;;;;4973676;28;20074;-17
2022/05/11 09:31:17;;;;;;;17.73;9.80;;;32.20;38.30;;;;;;4974451;28;20034;-16
2022/05/11 09:33:57;;;;;;;13.65;9.38;;;32.40;38.70;;;;;;4974452;28;20035;-16
2022/05/11 09:36:40;;;;;;;13.57;9.52;;;32.40;38.80;;;;;;4974262;28;20038;-16
2022/05/11 09:39:13;;;;;;;;;;;32.40;39.30;;;;;;4974553;28;20070;-17
2022/05/11 09:41:49;;;;;;;19.77;11.18;;;32.40;39.70;;;;;;4974096;28;19956;-15
2022/05/11 09:44:43;;;;;;;19.40;12.05;;;32.50;39.40;;;;;;4973774;28;20545;-16
2022/05/11 09:47:25;;;;;;;19.95;11.40;;;32.40;38.90;;;;;;4974332;28;20050;-16
2022/05/11 09:49:51;;;;;;;12.45;8.82;;;32.40;39.20;;;;;;4974327;28;20035;-15
2022/05/11 09:52:35;;;;;;;13.73;8.40;;;32.30;39.40;;;;;;4973981;28;20030;-18
2022/05/11 09:55:18;;;;;;;13.60;9.10;;;32.50;38.90;;;;;;4974501;28;20039;-16
2022/05/11 09:58:01;;;;;;;12.43;8.18;;;32.70;37.40;;;;;;4973891;28;20030;-16
2022/05/11 10:00:43;;;;;;;13.75;8.40;;;32.90;37.60;;;;;;4973992;28;20038;-17
2022/05/11 10:03:16;;;;;;;14.82;8.90;;;33.00;37.00;;;;;;4973887;28;20552;-16
2022/05/11 10:05:50;;;;;;;17.75;10.73;;;33.10;36.80;;;;;;4973834;28;20031;-18
2022/05/11 10:08:32;;;;;;;20.65;11.68;;;33.20;36.50;;;;;;5023872;23;20055;-15
2022/05/11 10:11:12;;;;;;;15.27;8.37;;;33.30;36.10;;;;;;4977431;28;20058;-14
2022/05/11 10:13:59;;;;;;;14.40;7.97;;;33.20;36.40;;;;;;4977603;28;20027;-13
2022/05/11 10:22:36;;;;;;;15.73;10.00;;;33.60;35.10;;;;;;4977211;28;20042;-14
2022/05/11 10:25:28;;;;;;;17.90;10.35;;;33.90;35.10;;;;;;4977476;28;20031;-14
2022/05/11 10:28:14;;;;;;;14.52;10.10;;;34.20;34.50;;;;;;4977413;28;20031;-13
2022/05/11 10:31:11;;;;;;;11.07;8.60;;;34.20;34.40;;;;;;4977057;28;20034;-13
2022/05/11 10:33:47;;;;;;;17.92;9.95;;;34.30;34.90;;;;;;4976929;28;20030;-13
2022/05/11 10:36:36;;;;;;;12.95;8.77;;;34.50;34.80;;;;;;4977218;28;20045;-13
2022/05/11 10:39:22;;;;;;;17.15;9.82;;;34.40;34.00;;;;;;4976835;28;20034;-13
2022/05/11 10:42:09;;;;;;;13.45;9.25;;;34.60;32.70;;;;;;4969622;28;20118;-13
2022/05/11 10:44:56;;;;;;;17.63;8.43;;;34.70;35.00;;;;;;4975463;28;20379;-13
2022/05/11 10:47:31;;;;;;;12.23;7.40;;;34.80;33.00;;;;;;4977107;28;20054;-13
2022/05/11 10:53:30;;;;;;;;;;;35.00;31.30;;;;;;4997294;23;20391;-15
2022/05/11 10:56:15;;;;;;;14.98;9.07;;;34.90;32.30;;;;;;4957711;28;19961;-14
2022/05/11 10:59:02;;;;;;;10.27;7.07;;;34.80;31.20;;;;;;4957468;29;20062;-14
2022/05/11 11:01:53;;;;;;;17.00;8.48;;;34.60;32.70;;;;;;4957475;29;20031;-14
2022/05/11 11:07:14;;;;;;;16.98;9.05;;;35.20;31.70;;;;;;4972748;28;20050;-14
2022/05/11 11:10:03;;;;;;;12.82;8.07;;;35.00;31.50;;;;;;5014891;23;20383;-14
2022/05/11 11:12:49;;;;;;;15.73;7.45;;;34.50;32.40;;;;;;4956968;28;20028;-14
2022/05/11 11:15:20;;;;;;;12.50;7.50;;;34.40;33.20;;;;;;4957205;29;20067;-14
2022/05/11 11:17:47;;;;;;;12.05;7.38;;;34.50;33.70;;;;;;4956919;28;20025;-14
2022/05/11 11:20:17;;;;;;;14.43;8.32;;;34.90;32.20;;;;;;4956001;28;20415;-14
2022/05/11 11:23:08;;;;;;;16.15;7.88;;;35.30;31.50;;;;;;4957377;28;20016;-13
2022/05/11 11:25:56;;;;;;;13.55;8.60;;;35.60;32.00;;;;;;5053475;23;20054;-14
2022/05/11 11:28:28;;;;;;;10.43;7.30;;;35.90;31.90;;;;;;5026982;23;20063;-14
2022/05/11 11:31:00;;;;;;;13.48;7.50;;;36.20;31.00;;;;;;4976248;28;20058;-14
2022/05/11 11:33:47;;;;;;;10.68;7.35;;;36.20;31.10;;;;;;4974611;28;20446;-14
2022/05/11 11:36:16;;;;;;;15.52;6.68;;;36.30;30.10;;;;;;4968631;28;20027;-14
2022/05/11 11:38:42;;;;;;;9.82;6.95;;;36.20;31.00;;;;;;4976270;28;20030;-14
2022/05/11 11:41:14;;;;;;;11.50;6.57;;;36.40;31.10;;;;;;4976269;28;20046;-13
2022/05/11 11:44:20;;;;;;;11.33;7.20;;;36.50;30.80;;;;;;4975682;28;20035;-14
2022/05/11 11:46:47;;;;;;;11.45;7.43;;;36.70;29.90;;;;;;4975583;28;20285;-13
2022/05/11 11:49:19;;;;;;;10.45;6.07;;;36.70;29.70;;;;;;4975553;28;20516;-14
2022/05/11 11:51:51;;;;;;;10.83;7.67;;;36.40;30.30;;;;;;4975621;28;20031;-14
2022/05/11 11:54:34;;;;;;;13.82;7.18;;;36.40;31.00;;;;;;4975180;28;20035;-14
2022/05/11 11:57:02;;;;;;;12.35;7.22;;;36.20;30.40;;;;;;4975413;28;20038;-14
2022/05/11 11:59:28;;;;;;;11.00;6.82;;;36.20;29.60;;;;;;4975943;28;20089;-13
2022/05/11 12:02:11;;;;;;;10.77;6.63;;;36.00;29.90;;;;;;4975338;28;20039;-13
2022/05/11 12:04:42;;;;;;;11.48;7.38;;;36.00;30.20;;;;;;4975139;28;20042;-14
2022/05/11 12:15:41;;;;;;;13.43;7.15;;;35.10;31.40;;;;;;4975449;28;20556;-14
2022/05/11 12:18:25;;;;;;;13.70;6.75;;;35.30;31.60;;;;;;4975351;28;20418;-13
2022/05/11 12:20:53;;;;;;;10.88;6.82;;;35.70;31.60;;;;;;4975680;28;20093;-14
2022/05/11 12:23:34;;;;;;;11.27;7.38;;;36.10;30.60;;;;;;4974949;28;20030;-13
2022/05/11 12:26:06;;;;;;;11.13;7.53;;;36.30;29.60;;;;;;4975364;28;20173;-14
2022/05/11 12:28:41;;;;;;;13.10;7.30;;;35.90;30.20;;;;;;4974393;28;20137;-13
2022/05/11 12:31:08;;;;;;;12.10;7.20;;;35.60;30.50;;;;;;4974716;28;20042;-14
2022/05/11 12:33:42;;;;;;;12.88;8.07;;;35.80;31.00;;;;;;4974740;28;20066;-14
2022/05/11 12:36:08;;;;;;;12.25;7.95;;;36.00;30.50;;;;;;4975042;28;20482;-13
2022/05/11 12:38:37;;;;;;;9.55;6.70;;;35.80;30.30;;;;;;4974533;28;20043;-14
2022/05/11 12:41:19;;;;;;;11.48;7.25;;;35.60;30.90;;;;;;4975222;28;20121;-14
2022/05/11 12:44:05;;;;;;;14.85;7.40;;;35.70;30.60;;;;;;4974787;28;20034;-14
2022/05/11 12:46:36;;;;;;;13.32;7.57;;;36.00;31.30;;;;;;4974787;28;20030;-14
2022/05/11 12:49:04;;;;;;;10.48;7.07;;;36.40;30.70;;;;;;4975067;28;20494;-14
2022/05/11 12:51:31;;;;;;;14.57;8.00;;;36.70;30.80;;;;;;4974784;28;20495;-14
2022/05/11 12:54:01;;;;;;;14.77;7.72;;;37.00;30.10;;;;;;4974640;28;20129;-14
2022/05/11 12:56:39;;;;;;;13.23;7.10;;;37.20;29.70;;;;;;4974643;28;20386;-13
2022/05/11 12:59:18;;;;;;;11.35;6.97;;;37.30;29.50;;;;;;4974501;28;20026;-13
2022/05/11 13:01:45;;;;;;;12.13;6.72;;;37.00;29.30;;;;;;4975072;28;20101;-13
2022/05/11 13:04:25;;;;;;;13.05;6.85;;;36.80;29.80;;;;;;4974390;28;20025;-13
2022/05/11 13:07:02;;;;;;;11.90;6.72;;;36.80;29.90;;;;;;4974708;28;20506;-13
2022/05/11 13:09:37;;;;;;;14.10;6.93;;;36.90;28.80;;;;;;4974328;28;20649;-14
2022/05/11 13:12:05;;;;;;;13.20;6.50;;;36.60;29.20;;;;;;4974243;28;20031;-14
2022/05/11 13:14:38;;;;;;;11.90;6.63;;;36.50;30.00;;;;;;4974293;28;20042;-13
2022/05/11 13:17:07;;;;;;;14.60;6.53;;;36.70;29.70;;;;;;4974664;28;20170;-14
2022/05/11 13:19:39;;;;;;;10.60;6.25;;;36.50;29.90;;;;;;4974585;28;20034;-13
2022/05/11 13:22:14;;;;;;;12.68;6.95;;;36.50;29.60;;;;;;4974426;28;20072;-13
2022/05/11 13:24:45;;;;;;;13.23;6.97;;;36.40;29.70;;;;;;4974699;28;20039;-13
2022/05/11 13:27:36;;;;;;;10.10;5.97;;;36.20;30.20;;;;;;4974378;28;20130;-13
2022/05/11 13:30:08;;;;;;;11.30;6.70;;;36.20;30.50;;;;;;4974467;28;20085;-13
2022/05/11 13:32:40;;;;;;;9.93;6.60;;;36.20;30.60;;;;;;4973968;28;20498;-13